Kane, IL (62054)

11:19 PM CDT on July 31, 2015 (GMT -0500)
Southland Estates | | Change Station
CLOSE
Current Station
Personal Weather Station
Location: Jerseyville, IL
Elevation: 669 ft
Nearby Weather Stations
Active Advisory: Flood Warning

Elev 669 ft 39.07 °N, 90.29 °W | Updated 7 seconds ago

Clear
Clear
72.5 °F
Feels Like 70 °F
N
0.0
Wind Variable Wind from WSW
Gusts 0.0 mph

Today
High -- | Low -- °F
--% Chance of Precip.
Yesterday
High -- | Low -- °F
Precip. -- in
6:00 AM 8:14 PM
Full, 99% visible
Pressure 30.03 in
Visibility 10.0 miles
Clouds Clear
Heat Index 70 °F
Dew Point 69 °F
Humidity 89%
Rainfall 0.00 in
Snow Depth Not available.
UV 0.0 out of 12
Pollen 6.90 out of 12
Air Quality Not available.
Flu Activity Not available.
METAR KSET 010354Z AUTO 00000KT 10SM CLR 24/22 A3004 RMK AO2 SLP168 T02440217

More Conditions Fewer Conditions

Pressure 30.03 in
Visibility 10.0 miles
Clouds Clear
Heat Index 70 °F
Dew Point 69 °F
Humidity 89%
Rainfall 0.00 in
Snow Depth Not available.
UV 0.0 out of 12
Pollen 6.90 out of 12
Air Quality Not available.
Flu Activity Not available.
METAR KSET 010354Z AUTO 00000KT 10SM CLR 24/22 A3004 RMK AO2 SLP168 T02440217

More Conditions Fewer Conditions

10-Day Weather Forecast

×

Almanac

Astronomy

Jul. 31, 2015 Rise Set
Actual Time
Civil Twilight
Nautical Twilight
Astronomical Twilight
Moon
Length of Visible Light
Length of Day
Tomorrow will be .
, % of the Moon is Illuminated

Today's Extremes

State Highs State Lows

Community

WunderPhotos

Upload Photos

1,842,873 photos uploaded!

WunderBlogs® & News

Nearby

Air Quality

  Air Quality AQ Index Pollutant
Not available.

Snow Depth

Station Depth Elevation

Earthquake Activity

City Distance Mag. Time & Date
Minimum magnitude displayed is 2.5.

Coastal Water Temperatures

Place Temperature

Stations

Nearby Weather Stations

Station Location Temp. Windchill Dew Point Humidity Wind Precip. Elev Updated Type
                   
Flood Warning
Statement as of 8:53 PM CDT on July 31, 2015

The Flood Warning continues for
the Illinois River at Hardin.
* At 8:30 PM Friday the stage was 27.7 feet.
* Flood stage is 25.0 feet.
* Minor flooding is occurring.
* The river will fall below flood stage by Thursday morning.

                   Fld latest 7 a.M. Forecast
location stg obs stg 08/01 08/02 08/03 08/04 08/05

Illinois River
Hardin 25.0 27.72 27.4 26.8 26.3 25.9 25.4




Lat... Lon 3952 9064 3952 9052 3898 9048 3891 9054
      3903 9062